Polfoss — V2PN7 — position and weather

sailwx.info

Track history (hours):
 
Tides and Currents Weather Stations Pressure Air Temp Water Temp Dewpoint Dewpoint Depression Visibility Wind Speed Wind Dir Waves Ship Positions

Polfoss

Last reported at 2014-Oct-02 13:33 UTC. Time now 2014-Oct-02 14:34 UTC.
Position N 53°35' W 000°04'.

Length 82 m; draft 6.4 m.

Type: Cargo ship. MMSI: 305081000.

Date/timePositionNaut miles runAvg speedWind from/ knotsBaromVisibWave heightAir tempDewpointWater temp
2014-Oct-02 13:33N 53°35' W 000°04'0 0.0
2014-Oct-02 12:33N 53°35' W 000°04'0 0.0
2014-Oct-02 11:33N 53°35' W 000°04'0 0.0
2014-Oct-02 10:33N 53°35' W 000°04'0 0.0
2014-Oct-02 09:33N 53°35' W 000°04'0 0.0
2014-Oct-02 08:33N 53°35' W 000°04'0 0.0
2014-Oct-02 07:33N 53°35' W 000°04'0 0.0
2014-Oct-02 06:33N 53°35' W 000°04'0 0.0
2014-Oct-02 05:33N 53°35' W 000°04'0 0.0
2014-Oct-02 04:33N 53°35' W 000°04'0 0.0
2014-Oct-02 03:34N 53°35' W 000°04'0 0.0
2014-Oct-02 02:34N 53°35' W 000°04'0 0.0
2014-Oct-02 01:33N 53°35' W 000°04'0 0.0
2014-Oct-02 00:33N 53°35' W 000°04'0 0.0
2014-Oct-01 23:33N 53°35' W 000°04'0 0.0
2014-Oct-01 22:33N 53°35' W 000°04'0 0.0
2014-Oct-01 21:33N 53°35' W 000°04'4 4.4
2014-Oct-01 20:33N 53°35' E 000°03'9 9.4
2014-Oct-01 19:33N 53°31' E 000°18'8 7.7
2014-Oct-01 18:32N 53°28' E 000°30'3510.8
2014-Oct-01 15:19N 53°14' E 001°23'911.8
2014-Oct-01 14:32N 53°10' E 001°37'1111.7
2014-Oct-01 13:34N 53°05' E 001°54'9012.8
2014-Oct-01 06:32N 52°31' E 004°12'1313.4
2014-Oct-01 05:34N 52°28' E 004°33'4 4.3
2014-Oct-01 04:33N 52°28' E 004°40'0 0.2
2014-Oct-01 03:33N 52°28' E 004°40'0 0.0
2014-Oct-01 02:29N 52°28' E 004°40'0 0.0
2014-Oct-01 01:32N 52°28' E 004°40'0 0.0
2014-Oct-01 00:31N 52°28' E 004°40'0 0.0
2014-Sep-30 23:31N 52°28' E 004°40'0 0.0
2014-Sep-30 22:33N 52°28' E 004°40'0 0.0
2014-Sep-30 21:32N 52°28' E 004°40'0 0.0
2014-Sep-30 20:32N 52°28' E 004°40'0 0.0
2014-Sep-30 19:31N 52°28' E 004°40'0 0.0
2014-Sep-30 18:34N 52°28' E 004°40'0 0.0
2014-Sep-30 17:33N 52°28' E 004°40'0 0.0
2014-Sep-30 16:32N 52°28' E 004°40'0 0.0
2014-Sep-30 15:25N 52°28' E 004°40'0 0.0
2014-Sep-30 14:31N 52°28' E 004°40'0 0.0
2014-Sep-30 13:27N 52°28' E 004°40'0 0.0
2014-Sep-30 12:33N 52°28' E 004°40'0 0.0
2014-Sep-30 11:32N 52°28' E 004°40'0 0.0
2014-Sep-30 10:31N 52°28' E 004°40'0 0.0
2014-Sep-30 09:31N 52°28' E 004°40'0 0.0
2014-Sep-30 08:33N 52°28' E 004°40'0 0.0
2014-Sep-30 07:32N 52°28' E 004°40'0 0.0
2014-Sep-30 06:26N 52°28' E 004°40'0 0.0
2014-Sep-30 05:31N 52°28' E 004°40'0 0.0
2014-Sep-30 04:33N 52°28' E 004°40'0 0.0
2014-Sep-30 03:33N 52°28' E 004°40'0 0.0
2014-Sep-30 02:29N 52°28' E 004°40'0 0.0
2014-Sep-30 01:31N 52°28' E 004°40'0 0.0
2014-Sep-30 00:28N 52°28' E 004°40'0 0.0
2014-Sep-29 23:33N 52°28' E 004°40'0 0.0
2014-Sep-29 22:33N 52°28' E 004°40'0 0.0
2014-Sep-29 21:32N 52°28' E 004°40'0 0.0
2014-Sep-29 20:31N 52°28' E 004°40'0 0.0
2014-Sep-29 19:31N 52°28' E 004°40'0 0.0
2014-Sep-29 18:33N 52°28' E 004°40'0 0.0
2014-Sep-29 17:32N 52°28' E 004°40'0 0.0
2014-Sep-29 16:29N 52°28' E 004°40'0 0.0
2014-Sep-29 15:31N 52°28' E 004°40'0 0.0
2014-Sep-29 14:31N 52°28' E 004°40'0 0.0
2014-Sep-29 13:33N 52°28' E 004°40'0 0.0
2014-Sep-29 12:32N 52°28' E 004°40'0 0.0
2014-Sep-29 11:32N 52°28' E 004°40'2 2.5
2014-Sep-29 10:34N 52°28' E 004°36'8 7.6
2014-Sep-29 09:33N 52°34' E 004°29'3013.3
2014-Sep-29 07:20N 53°04' E 004°31'2612.4
2014-Sep-29 05:12N 53°30' E 004°36'1014.8
2014-Sep-29 04:31N 53°40' E 004°41'1514.9
2014-Sep-29 03:29N 53°55' E 004°48'1714.6
2014-Sep-29 02:21N 54°11' E 004°52'1214.6
2014-Sep-29 01:33N 54°23' E 004°54'26614.0
2014-Sep-28 06:33N 58°49' E 005°18'1413.8
2014-Sep-28 05:33N 59°02' E 005°19'1514.0
2014-Sep-28 04:29N 59°17' E 005°20'1112.3
2014-Sep-28 03:33N 59°28' E 005°13'271 6.1
2014-Sep-26 07:11N 63°34' E 009°12'13111.1
2014-Sep-25 19:24N 65°22' E 012°03'6312.7
2014-Sep-25 14:29N 66°20' E 012°57'233 5.8
2014-Sep-23 22:13N 69°33' E 018°45'6 8.7
2014-Sep-23 21:33N 69°38' E 018°57'0 0.0
2014-Sep-23 20:34N 69°38' E 018°57'0 0.0
2014-Sep-23 19:33N 69°38' E 018°57'0 0.0
2014-Sep-23 18:33N 69°38' E 018°57'0 0.0
2014-Sep-23 17:33N 69°38' E 018°57'0 0.0
2014-Sep-23 16:33N 69°38' E 018°57'0 0.0
2014-Sep-23 15:24N 69°38' E 018°57'0 0.0
2014-Sep-23 14:33N 69°38' E 018°57'2 1.9
2014-Sep-23 13:33N 69°39' E 018°58'0 0.0
2014-Sep-23 12:33N 69°39' E 018°58'0 0.0
2014-Sep-23 11:33N 69°39' E 018°58'0 0.0
2014-Sep-23 10:31N 69°39' E 018°58'0 0.0
2014-Sep-23 09:33N 69°39' E 018°58'0 0.0
2014-Sep-23 08:33N 69°39' E 018°58'0 0.0
2014-Sep-23 07:33N 69°39' E 018°58'0 0.0
2014-Sep-23 06:33N 69°39' E 018°58'7 7.1
2014-Sep-23 05:33N 69°46' E 019°06'8714.1
2014-Sep-22 23:25N 70°30' E 022°47'1214.2
2014-Sep-22 22:33N 70°37' E 023°17'8 6.9
2014-Sep-22 21:26N 70°38' E 023°40'  
Track history (hours):
 
Tides and Currents Weather Stations Pressure Air Temp Water Temp Dewpoint Dewpoint Depression Visibility Wind Speed Wind Dir Waves Ship Positions

Polfoss

Last reported at 2014-Oct-02 13:33 UTC. Time now 2014-Oct-02 14:34 UTC.
Position N 53°35' W 000°04'.

Length 82 m; draft 6.4 m.

Type: Cargo ship. MMSI: 305081000.

Date/timePositionNaut miles runAvg speedWind from/ knotsBaromVisibWave heightAir tempDewpointWater temp
2014-Oct-02 13:33N 53°35' W 000°04'0 0.0
2014-Oct-02 12:33N 53°35' W 000°04'0 0.0
2014-Oct-02 11:33N 53°35' W 000°04'0 0.0
2014-Oct-02 10:33N 53°35' W 000°04'0 0.0
2014-Oct-02 09:33N 53°35' W 000°04'0 0.0
2014-Oct-02 08:33N 53°35' W 000°04'0 0.0
2014-Oct-02 07:33N 53°35' W 000°04'0 0.0
2014-Oct-02 06:33N 53°35' W 000°04'0 0.0
2014-Oct-02 05:33N 53°35' W 000°04'0 0.0
2014-Oct-02 04:33N 53°35' W 000°04'0 0.0
2014-Oct-02 03:34N 53°35' W 000°04'0 0.0
2014-Oct-02 02:34N 53°35' W 000°04'0 0.0
2014-Oct-02 01:33N 53°35' W 000°04'0 0.0
2014-Oct-02 00:33N 53°35' W 000°04'0 0.0
2014-Oct-01 23:33N 53°35' W 000°04'0 0.0
2014-Oct-01 22:33N 53°35' W 000°04'0 0.0
2014-Oct-01 21:33N 53°35' W 000°04'4 4.4
2014-Oct-01 20:33N 53°35' E 000°03'9 9.4
2014-Oct-01 19:33N 53°31' E 000°18'8 7.7
2014-Oct-01 18:32N 53°28' E 000°30'3510.8
2014-Oct-01 15:19N 53°14' E 001°23'911.8
2014-Oct-01 14:32N 53°10' E 001°37'1111.7
2014-Oct-01 13:34N 53°05' E 001°54'9012.8
2014-Oct-01 06:32N 52°31' E 004°12'1313.4
2014-Oct-01 05:34N 52°28' E 004°33'4 4.3
2014-Oct-01 04:33N 52°28' E 004°40'0 0.2
2014-Oct-01 03:33N 52°28' E 004°40'0 0.0
2014-Oct-01 02:29N 52°28' E 004°40'0 0.0
2014-Oct-01 01:32N 52°28' E 004°40'0 0.0
2014-Oct-01 00:31N 52°28' E 004°40'0 0.0
2014-Sep-30 23:31N 52°28' E 004°40'0 0.0
2014-Sep-30 22:33N 52°28' E 004°40'0 0.0
2014-Sep-30 21:32N 52°28' E 004°40'0 0.0
2014-Sep-30 20:32N 52°28' E 004°40'0 0.0
2014-Sep-30 19:31N 52°28' E 004°40'0 0.0
2014-Sep-30 18:34N 52°28' E 004°40'0 0.0
2014-Sep-30 17:33N 52°28' E 004°40'0 0.0
2014-Sep-30 16:32N 52°28' E 004°40'0 0.0
2014-Sep-30 15:25N 52°28' E 004°40'0 0.0
2014-Sep-30 14:31N 52°28' E 004°40'0 0.0
2014-Sep-30 13:27N 52°28' E 004°40'0 0.0
2014-Sep-30 12:33N 52°28' E 004°40'0 0.0
2014-Sep-30 11:32N 52°28' E 004°40'0 0.0
2014-Sep-30 10:31N 52°28' E 004°40'0 0.0
2014-Sep-30 09:31N 52°28' E 004°40'0 0.0
2014-Sep-30 08:33N 52°28' E 004°40'0 0.0
2014-Sep-30 07:32N 52°28' E 004°40'0 0.0
2014-Sep-30 06:26N 52°28' E 004°40'0 0.0
2014-Sep-30 05:31N 52°28' E 004°40'0 0.0
2014-Sep-30 04:33N 52°28' E 004°40'0 0.0
2014-Sep-30 03:33N 52°28' E 004°40'0 0.0
2014-Sep-30 02:29N 52°28' E 004°40'0 0.0
2014-Sep-30 01:31N 52°28' E 004°40'0 0.0
2014-Sep-30 00:28N 52°28' E 004°40'0 0.0
2014-Sep-29 23:33N 52°28' E 004°40'0 0.0
2014-Sep-29 22:33N 52°28' E 004°40'0 0.0
2014-Sep-29 21:32N 52°28' E 004°40'0 0.0
2014-Sep-29 20:31N 52°28' E 004°40'0 0.0
2014-Sep-29 19:31N 52°28' E 004°40'0 0.0
2014-Sep-29 18:33N 52°28' E 004°40'0 0.0
2014-Sep-29 17:32N 52°28' E 004°40'0 0.0
2014-Sep-29 16:29N 52°28' E 004°40'0 0.0
2014-Sep-29 15:31N 52°28' E 004°40'0 0.0
2014-Sep-29 14:31N 52°28' E 004°40'0 0.0
2014-Sep-29 13:33N 52°28' E 004°40'0 0.0
2014-Sep-29 12:32N 52°28' E 004°40'0 0.0
2014-Sep-29 11:32N 52°28' E 004°40'2 2.5
2014-Sep-29 10:34N 52°28' E 004°36'8 7.6
2014-Sep-29 09:33N 52°34' E 004°29'3013.3
2014-Sep-29 07:20N 53°04' E 004°31'2612.4
2014-Sep-29 05:12N 53°30' E 004°36'1014.8
2014-Sep-29 04:31N 53°40' E 004°41'1514.9
2014-Sep-29 03:29N 53°55' E 004°48'1714.6
2014-Sep-29 02:21N 54°11' E 004°52'1214.6
2014-Sep-29 01:33N 54°23' E 004°54'26614.0
2014-Sep-28 06:33N 58°49' E 005°18'1413.8
2014-Sep-28 05:33N 59°02' E 005°19'1514.0
2014-Sep-28 04:29N 59°17' E 005°20'1112.3
2014-Sep-28 03:33N 59°28' E 005°13'271 6.1
2014-Sep-26 07:11N 63°34' E 009°12'13111.1
2014-Sep-25 19:24N 65°22' E 012°03'6312.7
2014-Sep-25 14:29N 66°20' E 012°57'233 5.8
2014-Sep-23 22:13N 69°33' E 018°45'6 8.7
2014-Sep-23 21:33N 69°38' E 018°57'0 0.0
2014-Sep-23 20:34N 69°38' E 018°57'0 0.0
2014-Sep-23 19:33N 69°38' E 018°57'0 0.0
2014-Sep-23 18:33N 69°38' E 018°57'0 0.0
2014-Sep-23 17:33N 69°38' E 018°57'0 0.0
2014-Sep-23 16:33N 69°38' E 018°57'0 0.0
2014-Sep-23 15:24N 69°38' E 018°57'0 0.0
2014-Sep-23 14:33N 69°38' E 018°57'2 1.9
2014-Sep-23 13:33N 69°39' E 018°58'0 0.0
2014-Sep-23 12:33N 69°39' E 018°58'0 0.0
2014-Sep-23 11:33N 69°39' E 018°58'0 0.0
2014-Sep-23 10:31N 69°39' E 018°58'0 0.0
2014-Sep-23 09:33N 69°39' E 018°58'0 0.0
2014-Sep-23 08:33N 69°39' E 018°58'0 0.0
2014-Sep-23 07:33N 69°39' E 018°58'0 0.0
2014-Sep-23 06:33N 69°39' E 018°58'7 7.1
2014-Sep-23 05:33N 69°46' E 019°06'8714.1
2014-Sep-22 23:25N 70°30' E 022°47'1214.2
2014-Sep-22 22:33N 70°37' E 023°17'8 6.9
2014-Sep-22 21:26N 70°38' E 023°40'  

Dump ship's entire track history